createdAt,value
2023-02-26T00:01:47.291Z,95225.84
2023-02-26T00:04:15.576Z,95226.69
2023-02-26T00:06:54.367Z,95228.50
2023-02-26T00:09:25.311Z,95236.94
2023-02-26T00:11:53.842Z,95239.56
2023-02-26T00:14:23.990Z,95237.31
2023-02-26T00:16:54.640Z,95240.56
2023-02-26T00:19:23.033Z,95240.78
2023-02-26T00:21:51.730Z,95250.66
2023-02-26T00:24:19.858Z,95247.41
2023-02-26T00:26:48.111Z,95244.56
2023-02-26T00:29:17.177Z,95251.84
2023-02-26T00:31:47.366Z,95249.44
2023-02-26T00:34:16.018Z,95257.97
2023-02-26T00:36:46.304Z,95257.75
2023-02-26T00:39:31.107Z,95258.13
2023-02-26T00:41:59.614Z,95255.91
2023-02-26T00:44:28.309Z,95258.72
2023-02-26T00:47:01.132Z,95248.03
2023-02-26T00:49:33.009Z,95251.06
2023-02-26T00:52:03.155Z,95255.09
2023-02-26T00:54:31.823Z,95252.66
2023-02-26T00:57:00.281Z,95251.84
2023-02-26T00:59:28.397Z,95259.28
2023-02-26T01:01:56.621Z,95251.47
2023-02-26T01:04:26.678Z,95255.47
2023-02-26T01:06:56.238Z,95256.28
2023-02-26T01:09:26.795Z,95266.38
2023-02-26T01:11:55.663Z,95265.00
2023-02-26T01:14:24.760Z,95256.31
2023-02-26T01:16:54.969Z,95253.91
2023-02-26T01:19:31.180Z,95256.31
2023-02-26T01:22:04.414Z,95256.53
2023-02-26T01:24:32.743Z,95262.75
2023-02-26T01:27:01.097Z,95252.06
2023-02-26T01:29:29.387Z,95257.72
2023-02-26T01:32:01.101Z,95266.41
2023-02-26T01:34:33.592Z,95262.78
2023-02-26T01:37:05.210Z,95264.81
2023-02-26T01:39:36.786Z,95264.38
2023-02-26T01:42:07.425Z,95260.38
2023-02-26T01:44:37.884Z,95258.16
2023-02-26T01:47:12.078Z,95257.13
2023-02-26T01:49:43.398Z,95262.56
2023-02-26T01:52:44.730Z,95261.59
2023-02-26T01:55:12.849Z,95258.75
2023-02-26T01:57:41.609Z,95259.56
2023-02-26T02:00:11.148Z,95259.94
2023-02-26T02:02:42.246Z,95264.81
2023-02-26T02:05:13.404Z,95263.59
2023-02-26T02:07:41.523Z,95266.22
2023-02-26T02:10:10.592Z,95272.66
2023-02-26T02:12:40.918Z,95270.25
2023-02-26T02:15:11.310Z,95271.63
2023-02-26T02:17:43.006Z,95282.31
2023-02-26T02:20:50.172Z,95282.94
2023-02-26T02:23:18.987Z,95272.66
2023-02-26T02:26:07.965Z,95278.50
2023-02-26T02:28:41.683Z,95281.72
2023-02-26T02:31:13.164Z,95274.66
2023-02-26T02:33:44.985Z,95275.50
2023-02-26T02:36:15.563Z,95278.31
2023-02-26T02:38:46.685Z,95289.38
2023-02-26T02:41:17.120Z,95290.59
2023-02-26T02:43:45.489Z,95289.19
2023-02-26T02:46:19.898Z,95293.22
2023-02-26T02:48:50.089Z,95293.59
2023-02-26T02:51:22.638Z,95297.84
2023-02-26T02:53:51.863Z,95301.25
2023-02-26T02:56:23.686Z,95309.53
2023-02-26T02:58:54.400Z,95306.50
2023-02-26T03:01:24.173Z,95303.06
2023-02-26T03:03:55.790Z,95306.91
2023-02-26T03:06:24.497Z,95304.28
2023-02-26T03:08:52.585Z,95312.75
2023-02-26T03:11:20.971Z,95320.22
2023-02-26T03:13:50.120Z,95321.22
2023-02-26T03:16:33.926Z,95329.25
2023-02-26T03:19:05.858Z,95323.22
2023-02-26T03:21:39.360Z,95322.22
2023-02-26T03:24:13.984Z,95334.31
2023-02-26T03:26:44.030Z,95332.69
2023-02-26T03:29:17.553Z,95340.56
2023-02-26T03:31:51.579Z,95340.34
2023-02-26T03:34:21.180Z,95349.00
2023-02-26T03:36:52.075Z,95357.91
2023-02-26T03:39:25.092Z,95358.88
2023-02-26T03:41:54.734Z,95361.53
2023-02-26T03:44:25.765Z,95365.34
2023-02-26T03:46:57.368Z,95370.97
2023-02-26T03:49:30.078Z,95367.34
2023-02-26T03:51:59.242Z,95374.19
2023-02-26T03:54:52.226Z,95383.06
2023-02-26T03:57:49.809Z,95373.78
2023-02-26T04:00:38.266Z,95382.22
2023-02-26T04:03:09.891Z,95386.06
2023-02-26T04:05:40.700Z,95388.69
2023-02-26T04:08:09.017Z,95392.28
2023-02-26T04:10:39.442Z,95392.09
2023-02-26T04:13:07.689Z,95396.72
2023-02-26T04:15:35.900Z,95389.50
2023-02-26T04:18:04.305Z,95391.53
2023-02-26T04:20:33.883Z,95399.97
2023-02-26T04:23:01.996Z,95400.97
2023-02-26T04:25:30.805Z,95405.63
2023-02-26T04:28:00.458Z,95419.91
2023-02-26T04:30:28.859Z,95418.25
2023-02-26T04:32:57.085Z,95427.94
2023-02-26T04:35:25.170Z,95431.16
2023-02-26T04:37:54.663Z,95420.69
2023-02-26T04:40:23.993Z,95429.56
2023-02-26T04:42:52.220Z,95434.75
2023-02-26T04:45:25.051Z,95438.00
2023-02-26T04:47:53.675Z,95445.84
2023-02-26T04:50:21.848Z,95444.22
2023-02-26T04:52:55.141Z,95447.63
2023-02-26T04:55:23.338Z,95449.25
2023-02-26T04:57:52.184Z,95458.75
2023-02-26T05:00:25.763Z,95458.75
2023-02-26T05:02:53.877Z,95458.31
2023-02-26T05:05:22.011Z,95461.19
2023-02-26T05:07:50.505Z,95480.06
2023-02-26T05:10:20.139Z,95475.44
2023-02-26T05:12:48.517Z,95479.25
2023-02-26T05:15:16.581Z,95483.06
2023-02-26T05:17:45.076Z,95480.66
2023-02-26T05:20:13.553Z,95485.09
2023-02-26T05:22:41.666Z,95483.31
2023-02-26T05:25:12.499Z,95483.50
2023-02-26T05:27:42.459Z,95484.50
2023-02-26T05:30:12.326Z,95495.84
2023-02-26T05:32:40.426Z,95499.03
2023-02-26T05:35:09.113Z,95504.06
2023-02-26T05:37:37.512Z,95501.25
2023-02-26T05:40:06.578Z,95506.69
2023-02-26T05:42:34.676Z,95509.31
2023-02-26T05:45:04.863Z,95522.19
2023-02-26T05:47:33.250Z,95525.56
2023-02-26T05:50:01.317Z,95525.75
2023-02-26T05:52:29.671Z,95534.41
2023-02-26T05:54:57.697Z,95536.28
2023-02-26T05:57:25.864Z,95535.47
2023-02-26T05:59:53.887Z,95534.47
2023-02-26T06:02:23.402Z,95542.69
2023-02-26T06:04:51.413Z,95544.94
2023-02-26T06:07:19.814Z,95543.91
2023-02-26T06:09:47.905Z,95545.97
2023-02-26T06:12:15.970Z,95547.19
2023-02-26T06:14:44.022Z,95559.06
2023-02-26T06:17:12.065Z,95572.31
2023-02-26T06:19:41.844Z,95570.16
2023-02-26T06:22:09.949Z,95574.94
2023-02-26T06:24:38.058Z,95589.28
2023-02-26T06:27:06.236Z,95587.06
2023-02-26T06:29:34.535Z,95591.72
2023-02-26T06:32:02.923Z,95606.38
2023-02-26T06:34:31.077Z,95607.41
2023-02-26T06:37:00.535Z,95616.31
2023-02-26T06:39:28.651Z,95619.91
2023-02-26T06:41:56.723Z,95623.72
2023-02-26T06:44:24.858Z,95628.97
2023-02-26T06:46:52.914Z,95632.00
2023-02-26T06:49:21.095Z,95640.69
2023-02-26T06:51:49.134Z,95638.69
2023-02-26T06:54:18.819Z,95644.31
2023-02-26T06:56:46.902Z,95642.34
2023-02-26T06:59:15.676Z,95662.16
2023-02-26T07:01:44.920Z,95660.56
2023-02-26T07:04:12.953Z,95661.59
2023-02-26T07:06:41.316Z,95666.97
2023-02-26T07:09:09.586Z,95665.78
2023-02-26T07:11:39.096Z,95681.25
2023-02-26T07:14:07.454Z,95680.25
2023-02-26T07:16:35.573Z,95682.06
2023-02-26T07:19:03.660Z,95686.97
2023-02-26T07:21:31.721Z,95697.88
2023-02-26T07:23:59.790Z,95698.69
2023-02-26T07:26:28.303Z,95707.97
2023-02-26T07:28:57.932Z,95710.97
2023-02-26T07:31:26.071Z,95707.78
2023-02-26T07:33:54.234Z,95719.53
2023-02-26T07:36:22.288Z,95717.72
2023-02-26T07:38:50.401Z,95725.66
2023-02-26T07:41:18.758Z,95728.63
2023-02-26T07:43:46.886Z,95725.22
2023-02-26T07:46:16.416Z,95730.09
2023-02-26T07:48:44.583Z,95736.97
2023-02-26T07:51:12.661Z,95732.72
2023-02-26T07:53:40.755Z,95736.50
2023-02-26T07:56:09.895Z,95747.22
2023-02-26T07:58:37.994Z,95759.47
2023-02-26T08:01:07.046Z,95751.63
2023-02-26T08:03:36.622Z,95761.28
2023-02-26T08:06:05.339Z,95757.69
2023-02-26T08:08:34.310Z,95764.19
2023-02-26T08:11:02.372Z,95770.59
2023-02-26T08:13:30.447Z,95775.22
2023-02-26T08:15:58.568Z,95782.72
2023-02-26T08:18:26.656Z,95787.34
2023-02-26T08:20:56.121Z,95790.66
2023-02-26T08:23:24.541Z,95791.69
2023-02-26T08:25:52.632Z,95800.63
2023-02-26T08:28:20.840Z,95794.22
2023-02-26T08:30:48.901Z,95810.94
2023-02-26T08:33:16.993Z,95812.75
2023-02-26T08:35:45.043Z,95810.88
2023-02-26T08:38:14.825Z,95809.88
2023-02-26T08:40:42.879Z,95820.16
2023-02-26T08:43:11.799Z,95825.03
2023-02-26T08:45:39.900Z,95826.34
2023-02-26T08:48:09.862Z,95831.16
2023-02-26T08:50:40.241Z,95839.22
2023-02-26T08:53:08.345Z,95847.06
2023-02-26T08:55:37.786Z,95843.63
2023-02-26T08:58:05.875Z,95856.97
2023-02-26T09:00:33.934Z,95853.31
2023-02-26T09:03:02.386Z,95858.84
2023-02-26T09:05:30.474Z,95867.78
2023-02-26T09:07:58.560Z,95866.78
2023-02-26T09:10:26.585Z,95870.41
2023-02-26T09:12:56.094Z,95878.00
2023-02-26T09:15:24.251Z,95883.97
2023-02-26T09:17:52.863Z,95896.34
2023-02-26T09:20:22.421Z,95895.63
2023-02-26T09:22:50.672Z,95905.25
2023-02-26T09:25:18.891Z,95898.13
2023-02-26T09:27:46.953Z,95907.50
2023-02-26T09:30:17.169Z,95901.19
2023-02-26T09:32:45.281Z,95908.72
2023-02-26T09:35:13.637Z,95907.91
2023-02-26T09:37:41.850Z,95914.19
2023-02-26T09:40:13.137Z,95919.50
2023-02-26T09:42:52.459Z,95919.94
2023-02-26T09:45:26.538Z,95923.53
2023-02-26T09:47:54.736Z,95920.84
2023-02-26T09:50:24.409Z,95930.38
2023-02-26T09:52:54.741Z,95929.56
2023-02-26T09:55:28.176Z,95936.31
2023-02-26T09:57:58.219Z,95935.44
2023-02-26T10:00:31.952Z,95941.16
2023-02-26T10:03:04.367Z,95944.09
2023-02-26T10:05:36.328Z,95944.66
2023-02-26T10:08:06.910Z,95948.09
2023-02-26T10:10:42.590Z,95953.53
2023-02-26T10:13:11.994Z,95953.97
2023-02-26T10:15:42.457Z,95957.34
2023-02-26T10:18:12.086Z,95959.59
2023-02-26T10:20:43.332Z,95963.81
2023-02-26T10:23:17.757Z,95968.81
2023-02-26T10:25:47.894Z,95977.09
2023-02-26T10:28:35.878Z,95977.66
2023-02-26T10:31:07.539Z,95980.34
2023-02-26T10:33:39.296Z,95980.06
2023-02-26T10:36:19.039Z,95983.59
2023-02-26T10:38:49.080Z,95989.59
2023-02-26T10:41:19.440Z,95991.66
2023-02-26T10:43:50.138Z,95986.75
2023-02-26T10:46:26.528Z,95997.66
2023-02-26T10:49:03.724Z,95994.97
2023-02-26T10:51:35.139Z,95997.56
2023-02-26T10:54:05.601Z,96009.69
2023-02-26T10:56:34.369Z,96003.81
2023-02-26T10:59:02.455Z,96010.44
2023-02-26T11:01:32.538Z,96015.09
2023-02-26T11:04:02.580Z,96015.31
2023-02-26T11:06:32.200Z,96016.88
2023-02-26T11:09:00.857Z,96024.44
2023-02-26T11:11:44.193Z,96019.28
2023-02-26T11:14:12.759Z,96013.84
2023-02-26T11:16:49.506Z,96017.75
2023-02-26T11:19:17.665Z,96017.72
2023-02-26T11:21:47.465Z,96022.69
2023-02-26T11:24:19.423Z,96026.59
2023-02-26T11:26:48.853Z,96025.97
2023-02-26T11:29:18.885Z,96025.59
2023-02-26T11:31:51.886Z,96022.28
2023-02-26T11:34:23.437Z,96028.53
2023-02-26T11:36:51.940Z,96032.78
2023-02-26T11:39:20.813Z,96029.69
2023-02-26T11:41:49.862Z,96023.72
2023-02-26T11:44:21.195Z,96026.25
2023-02-26T11:46:52.854Z,96022.09
2023-02-26T11:49:23.111Z,96035.50
2023-02-26T11:52:05.718Z,96035.50
2023-02-26T11:54:35.670Z,96028.91
2023-02-26T11:57:06.131Z,96031.53
2023-02-26T11:59:34.320Z,96024.66
2023-02-26T12:02:07.281Z,96030.88
2023-02-26T12:04:35.382Z,96034.06
2023-02-26T12:07:03.515Z,96030.16
2023-02-26T12:09:31.591Z,96025.94
2023-02-26T12:12:10.319Z,96029.59
2023-02-26T12:14:51.139Z,96035.91
2023-02-26T12:17:38.417Z,96032.06
2023-02-26T12:20:17.336Z,96032.06
2023-02-26T12:22:55.093Z,96034.97
2023-02-26T12:25:29.162Z,96028.16
2023-02-26T12:28:10.154Z,96034.56
2023-02-26T12:30:49.558Z,96037.00
2023-02-26T12:33:26.150Z,96036.56
2023-02-26T12:36:03.670Z,96035.66
2023-02-26T12:38:34.884Z,96040.34
2023-02-26T12:41:26.881Z,96043.31
2023-02-26T12:43:56.175Z,96042.75
2023-02-26T12:46:48.862Z,96043.13
2023-02-26T12:49:44.778Z,96054.56
2023-02-26T12:52:35.625Z,96044.06
2023-02-26T12:55:12.334Z,96050.47
2023-02-26T12:57:51.884Z,96052.34
2023-02-26T13:00:30.012Z,96051.94
2023-02-26T13:03:14.203Z,96052.63
2023-02-26T13:06:00.827Z,96059.72
2023-02-26T13:08:33.418Z,96061.47
2023-02-26T13:11:09.021Z,96066.25
2023-02-26T13:13:54.646Z,96051.31
2023-02-26T13:16:30.315Z,96057.19
2023-02-26T13:19:02.327Z,96058.88
2023-02-26T13:21:33.652Z,96064.97
2023-02-26T13:24:05.215Z,96054.72
2023-02-26T13:26:33.374Z,96058.38
2023-02-26T13:29:03.358Z,96058.06
2023-02-26T13:31:33.320Z,96065.38
2023-02-26T13:34:06.188Z,96066.94
2023-02-26T13:36:35.661Z,96071.34
2023-02-26T13:39:28.745Z,96079.44
2023-02-26T13:42:00.336Z,96075.78
2023-02-26T13:44:33.599Z,96077.31
2023-02-26T13:47:27.470Z,96080.94
2023-02-26T13:50:01.208Z,96087.63
2023-02-26T13:52:31.879Z,96081.59
2023-02-26T13:55:00.148Z,96076.22
2023-02-26T13:57:37.239Z,96077.34
2023-02-26T14:00:12.934Z,96074.72
2023-02-26T14:02:52.861Z,96077.84
2023-02-26T14:06:01.950Z,96073.19
2023-02-26T14:08:45.002Z,96074.13
2023-02-26T14:11:44.473Z,96067.75
2023-02-26T14:14:21.369Z,96079.66
2023-02-26T14:16:51.712Z,96079.31
2023-02-26T14:19:24.138Z,96079.94
2023-02-26T14:21:52.910Z,96079.94
2023-02-26T14:24:24.290Z,96081.06
2023-02-26T14:27:05.914Z,96080.19
2023-02-26T14:29:40.677Z,96083.81
2023-02-26T14:32:16.814Z,96088.16
2023-02-26T14:34:50.372Z,96094.34
2023-02-26T14:37:21.516Z,96092.16
2023-02-26T14:39:53.317Z,96087.31
2023-02-26T14:42:23.651Z,96091.28
2023-02-26T14:44:53.662Z,96086.78
2023-02-26T14:47:21.745Z,96095.56
2023-02-26T14:49:49.995Z,96093.75
2023-02-26T14:52:35.984Z,96098.66
2023-02-26T14:55:31.344Z,96096.03
2023-02-26T14:58:07.790Z,96100.19
2023-02-26T15:00:40.786Z,96105.16
2023-02-26T15:03:25.516Z,96101.00
2023-02-26T15:06:00.093Z,96113.38
2023-02-26T15:08:40.448Z,96111.75
2023-02-26T15:11:32.219Z,96110.66
2023-02-26T15:14:25.462Z,96117.72
2023-02-26T15:16:58.342Z,96107.09
2023-02-26T15:19:40.303Z,96116.16
2023-02-26T15:22:18.124Z,96124.69
2023-02-26T15:24:46.246Z,96122.84
2023-02-26T15:27:17.632Z,96120.41
2023-02-26T15:29:45.761Z,96124.88
2023-02-26T15:32:17.020Z,96129.34
2023-02-26T15:34:47.703Z,96131.16
2023-02-26T15:37:23.760Z,96128.94
2023-02-26T15:39:52.266Z,96135.16
2023-02-26T15:42:23.857Z,96133.78
2023-02-26T15:44:57.120Z,96131.72
2023-02-26T15:47:25.421Z,96134.03
2023-02-26T15:49:54.530Z,96139.16
2023-02-26T15:52:24.036Z,96142.59
2023-02-26T15:54:53.516Z,96141.78
2023-02-26T15:57:24.040Z,96137.13
2023-02-26T15:59:53.821Z,96146.75
2023-02-26T16:02:23.819Z,96147.22
2023-02-26T16:04:53.131Z,96149.25
2023-02-26T16:07:21.614Z,96140.97
2023-02-26T16:09:51.460Z,96143.03
2023-02-26T16:12:20.918Z,96137.53
2023-02-26T16:14:52.028Z,96148.16
2023-02-26T16:17:24.845Z,96153.13
2023-02-26T16:19:53.294Z,96152.44
2023-02-26T16:22:22.549Z,96153.53
2023-02-26T16:24:53.720Z,96160.78
2023-02-26T16:27:21.761Z,96164.38
2023-02-26T16:29:52.216Z,96168.50
2023-02-26T16:32:20.704Z,96164.66
2023-02-26T16:34:51.597Z,96171.13
2023-02-26T16:37:24.938Z,96182.59
2023-02-26T16:39:55.262Z,96173.47
2023-02-26T16:42:24.460Z,96185.56
2023-02-26T16:44:59.277Z,96195.69
2023-02-26T16:47:27.475Z,96190.53
2023-02-26T16:49:55.564Z,96200.69
2023-02-26T16:52:25.812Z,96197.69
2023-02-26T16:54:59.985Z,96211.53
2023-02-26T16:57:33.432Z,96206.91
2023-02-26T17:00:09.576Z,96207.72
2023-02-26T17:02:38.194Z,96218.75
2023-02-26T17:05:11.532Z,96220.13
2023-02-26T17:07:48.091Z,96213.34
2023-02-26T17:10:20.703Z,96216.13
2023-02-26T17:12:50.374Z,96222.88
2023-02-26T17:15:21.667Z,96221.72
2023-02-26T17:17:49.819Z,96233.72
2023-02-26T17:20:18.471Z,96235.63
2023-02-26T17:22:46.607Z,96243.34
2023-02-26T17:25:16.610Z,96248.41
2023-02-26T17:27:45.027Z,96260.78
2023-02-26T17:30:16.078Z,96270.16
2023-02-26T17:32:45.706Z,96266.09
2023-02-26T17:35:14.337Z,96270.50
2023-02-26T17:37:42.499Z,96264.97
2023-02-26T17:40:19.539Z,96283.13
2023-02-26T17:42:47.854Z,96276.78
2023-02-26T17:45:16.790Z,96287.59
2023-02-26T17:47:47.502Z,96292.56
2023-02-26T17:50:30.511Z,96293.81
2023-02-26T17:52:58.737Z,96290.53
2023-02-26T17:55:27.077Z,96305.25
2023-02-26T17:57:55.557Z,96293.75
2023-02-26T18:00:24.020Z,96302.25
2023-02-26T18:02:53.501Z,96303.25
2023-02-26T18:05:21.637Z,96301.34
2023-02-26T18:07:49.867Z,96306.56
2023-02-26T18:10:20.812Z,96316.88
2023-02-26T18:12:49.219Z,96318.34
2023-02-26T18:15:17.599Z,96310.75
2023-02-26T18:17:45.668Z,96308.63
2023-02-26T18:20:20.080Z,96316.28
2023-02-26T18:22:48.992Z,96314.66
2023-02-26T18:25:17.339Z,96313.03
2023-02-26T18:27:45.632Z,96315.66
2023-02-26T18:30:27.597Z,96323.34
2023-02-26T18:32:55.765Z,96324.50
2023-02-26T18:35:26.221Z,96328.91
2023-02-26T18:37:54.704Z,96326.31
2023-02-26T18:40:23.829Z,96326.75
2023-02-26T18:42:52.020Z,96335.25
2023-02-26T18:45:20.142Z,96329.66
2023-02-26T18:47:48.318Z,96335.56
2023-02-26T18:50:17.531Z,96339.00
2023-02-26T18:52:46.993Z,96341.06
2023-02-26T18:55:15.079Z,96344.06
2023-02-26T18:57:43.327Z,96342.22
2023-02-26T19:00:13.947Z,96346.84
2023-02-26T19:02:42.441Z,96356.38
2023-02-26T19:05:11.367Z,96356.25
2023-02-26T19:07:39.538Z,96362.66
2023-02-26T19:10:11.045Z,96357.78
2023-02-26T19:12:39.119Z,96360.06
2023-02-26T19:15:08.431Z,96362.69
2023-02-26T19:17:36.551Z,96370.72
2023-02-26T19:20:05.200Z,96370.31
2023-02-26T19:22:33.338Z,96380.25
2023-02-26T19:25:01.455Z,96383.03
2023-02-26T19:27:30.905Z,96381.75
2023-02-26T19:29:58.989Z,96389.25
2023-02-26T19:32:28.609Z,96393.06
2023-02-26T19:34:56.943Z,96392.53
2023-02-26T19:37:25.019Z,96393.00
2023-02-26T19:39:53.104Z,96389.25
2023-02-26T19:42:21.376Z,96399.66
2023-02-26T19:44:50.914Z,96398.16
2023-02-26T19:47:19.275Z,96402.22
2023-02-26T19:49:47.459Z,96413.00
2023-02-26T19:52:15.534Z,96407.59
2023-02-26T19:54:43.621Z,96401.53
2023-02-26T19:57:11.717Z,96408.22
2023-02-26T19:59:40.137Z,96412.81
2023-02-26T20:02:10.246Z,96415.59
2023-02-26T20:04:38.575Z,96422.03
2023-02-26T20:07:06.949Z,96418.44
2023-02-26T20:09:35.122Z,96425.19
2023-02-26T20:12:03.238Z,96425.03
2023-02-26T20:14:31.725Z,96421.44
2023-02-26T20:16:59.827Z,96425.63
2023-02-26T20:19:29.408Z,96431.16
2023-02-26T20:21:57.843Z,96428.53
2023-02-26T20:24:26.466Z,96430.34
2023-02-26T20:26:54.668Z,96428.53
2023-02-26T20:29:23.616Z,96439.00
2023-02-26T20:31:51.914Z,96428.69
2023-02-26T20:34:20.905Z,96434.25
2023-02-26T20:36:50.836Z,96431.81
2023-02-26T20:39:19.468Z,96438.34
2023-02-26T20:41:47.932Z,96438.13
2023-02-26T20:44:16.000Z,96442.28
2023-02-26T20:46:44.244Z,96444.06
2023-02-26T20:49:14.902Z,96440.31
2023-02-26T20:51:43.248Z,96451.78
2023-02-26T20:54:14.747Z,96452.75
2023-02-26T20:56:42.856Z,96451.59
2023-02-26T20:59:11.048Z,96454.06
2023-02-26T21:01:39.209Z,96463.34
2023-02-26T21:04:08.438Z,96456.31
2023-02-26T21:06:36.642Z,96463.50
2023-02-26T21:09:05.302Z,96461.38
2023-02-26T21:11:36.954Z,96469.06
2023-02-26T21:14:05.828Z,96472.34
2023-02-26T21:16:34.045Z,96479.84
2023-02-26T21:19:02.168Z,96475.25
2023-02-26T21:21:31.050Z,96475.91
2023-02-26T21:23:59.449Z,96474.44
2023-02-26T21:26:28.046Z,96480.81
2023-02-26T21:28:57.656Z,96481.63
2023-02-26T21:31:26.219Z,96481.00
2023-02-26T21:33:54.474Z,96486.75
2023-02-26T21:36:22.881Z,96481.50
2023-02-26T21:38:50.993Z,96482.34
2023-02-26T21:41:20.436Z,96478.91
2023-02-26T21:43:48.896Z,96487.09
2023-02-26T21:46:18.870Z,96482.34
2023-02-26T21:48:50.421Z,96488.09
2023-02-26T21:51:21.386Z,96481.38
2023-02-26T21:53:49.921Z,96492.53
2023-02-26T21:56:19.286Z,96491.34
2023-02-26T21:58:47.681Z,96489.25
2023-02-26T22:01:16.205Z,96486.47
2023-02-26T22:03:45.932Z,96498.25
2023-02-26T22:06:14.065Z,96498.59
2023-02-26T22:08:42.187Z,96490.13
2023-02-26T22:11:10.335Z,96491.13
2023-02-26T22:13:38.499Z,96492.81
2023-02-26T22:16:07.388Z,96501.00
2023-02-26T22:18:35.474Z,96494.66
2023-02-26T22:21:05.323Z,96498.44
2023-02-26T22:23:33.461Z,96500.91
2023-02-26T22:26:01.600Z,96499.94
2023-02-26T22:28:29.777Z,96504.34
2023-02-26T22:30:58.371Z,96501.75
2023-02-26T22:33:26.743Z,96499.81
2023-02-26T22:35:57.014Z,96510.09
2023-02-26T22:38:26.498Z,96508.00
2023-02-26T22:40:54.623Z,96509.13
2023-02-26T22:43:23.054Z,96504.88
2023-02-26T22:45:51.228Z,96514.66
2023-02-26T22:48:19.877Z,96512.22
2023-02-26T22:50:48.044Z,96519.53
2023-02-26T22:53:16.128Z,96512.81
2023-02-26T22:55:45.662Z,96517.56
2023-02-26T22:58:14.348Z,96517.88
2023-02-26T23:00:42.429Z,96512.97
2023-02-26T23:03:10.521Z,96517.06
2023-02-26T23:05:38.585Z,96518.16
2023-02-26T23:08:06.660Z,96513.06
2023-02-26T23:10:35.078Z,96512.91
2023-02-26T23:13:04.573Z,96516.94
2023-02-26T23:15:32.771Z,96517.56
2023-02-26T23:18:00.863Z,96510.25
2023-02-26T23:20:28.916Z,96511.34
2023-02-26T23:22:56.958Z,96518.97
2023-02-26T23:25:26.636Z,96518.78
2023-02-26T23:27:54.725Z,96511.59
2023-02-26T23:30:24.208Z,96520.22
2023-02-26T23:32:52.278Z,96512.97
2023-02-26T23:35:20.541Z,96523.75
2023-02-26T23:37:48.660Z,96521.25
2023-02-26T23:40:17.067Z,96515.97
2023-02-26T23:42:45.343Z,96520.78
2023-02-26T23:45:13.501Z,96523.63
2023-02-26T23:47:42.953Z,96522.75
2023-02-26T23:50:12.347Z,96529.22
2023-02-26T23:52:40.722Z,96534.66
2023-02-26T23:55:09.880Z,96532.56
2023-02-26T23:57:37.932Z,96532.84
